Time;durP1;ratioP1;P1;durP2;ratioP2;P2;SDS_P1;SDS_P2;PMS_P1;PMS_P2;Temp;Humidity;BMP_temperature;BMP_pressure;BME280_temperature;BME280_humidity;BME280_pressure;Samples;Min_cycle;Max_cycle;Signal;HPM_P1;HPM_P2
2023/07/10 00:02:12;;;;;;;20.30;14.30;;;;;;;19.61;100.00;101801.09;5010259;28;20049;-58
2023/07/10 00:04:40;;;;;;;19.73;14.45;;;;;;;19.65;100.00;101805.16;5010998;28;20442;-57
2023/07/10 00:07:08;;;;;;;23.05;15.57;;;;;;;19.61;100.00;101798.41;5011454;28;20152;-58
2023/07/10 00:09:36;;;;;;;19.35;14.15;;;;;;;19.66;100.00;101796.19;5010270;28;20057;-59
2023/07/10 00:12:06;;;;;;;23.00;14.57;;;;;;;19.61;100.00;101787.75;5011006;28;20049;-59
2023/07/10 00:14:34;;;;;;;20.15;15.73;;;;;;;19.66;100.00;101788.19;5009384;28;20355;-59
2023/07/10 00:17:03;;;;;;;19.70;14.05;;;;;;;19.68;100.00;101788.03;5009335;28;20529;-58
2023/07/10 00:19:32;;;;;;;20.27;14.98;;;;;;;19.58;100.00;101788.84;5009943;28;20078;-58
2023/07/10 00:22:01;;;;;;;21.00;14.70;;;;;;;19.65;100.00;101796.34;5010786;28;20046;-58
2023/07/10 00:24:29;;;;;;;22.92;14.27;;;;;;;19.65;100.00;101799.84;5010012;28;20405;-58
2023/07/10 00:26:57;;;;;;;19.15;14.38;;;;;;;19.65;100.00;101801.66;5009081;28;20133;-58
2023/07/10 00:29:31;;;;;;;20.20;14.85;;;;;;;19.58;100.00;101804.88;5010156;28;20100;-58
2023/07/10 00:32:02;;;;;;;20.05;14.68;;;;;;;19.55;100.00;101798.94;5008373;28;20065;-58
2023/07/10 00:34:30;;;;;;;19.48;15.18;;;;;;;19.60;100.00;101804.72;5009818;28;20112;-58
2023/07/10 00:37:00;;;;;;;22.02;15.68;;;;;;;19.56;100.00;101809.47;5010415;28;20497;-58
2023/07/10 00:39:34;;;;;;;18.65;15.50;;;;;;;19.57;100.00;101803.16;5009933;28;20055;-58
2023/07/10 00:42:07;;;;;;;23.58;15.35;;;;;;;19.48;100.00;101797.81;5010031;28;20062;-59
2023/07/10 00:44:39;;;;;;;23.20;15.77;;;;;;;19.41;100.00;101806.38;5012197;28;20046;-59
2023/07/10 00:47:18;;;;;;;20.65;15.23;;;;;;;19.46;100.00;101808.63;5009116;28;20125;-58
2023/07/10 00:49:51;;;;;;;21.40;14.02;;;;;;;19.56;100.00;101811.31;5009406;28;20054;-59
2023/07/10 00:52:26;;;;;;;22.02;14.68;;;;;;;19.50;100.00;101806.53;5009616;28;20050;-58
2023/07/10 00:54:58;;;;;;;20.48;14.32;;;;;;;19.58;100.00;101820.03;5009267;28;20501;-57
2023/07/10 00:57:33;;;;;;;21.13;13.75;;;;;;;19.53;100.00;101820.44;5009380;28;20527;-58
2023/07/10 01:00:15;;;;;;;22.05;13.38;;;;;;;19.47;100.00;101822.78;5009261;28;20728;-59
2023/07/10 01:02:43;;;;;;;22.33;14.13;;;;;;;19.51;100.00;101809.06;5009005;28;20081;-63
2023/07/10 01:05:11;;;;;;;23.67;13.85;;;;;;;19.56;100.00;101806.81;5009521;28;20152;-63
2023/07/10 01:07:48;;;;;;;19.80;12.68;;;;;;;19.65;100.00;101804.34;5009257;28;20418;-58
2023/07/10 01:10:16;;;;;;;20.90;12.88;;;;;;;19.69;100.00;101803.91;5009908;28;20564;-59
2023/07/10 01:12:46;;;;;;;16.90;12.52;;;;;;;19.71;100.00;101809.13;5008719;28;20509;-60
2023/07/10 01:15:17;;;;;;;20.45;13.18;;;;;;;19.55;100.00;101805.16;5008807;28;20584;-59
2023/07/10 01:17:46;;;;;;;19.02;12.95;;;;;;;19.57;100.00;101799.66;5008134;28;20054;-59
2023/07/10 01:20:33;;;;;;;19.45;13.00;;;;;;;19.53;100.00;101800.91;5009356;28;20045;-59
2023/07/10 01:23:04;;;;;;;20.30;12.85;;;;;;;19.49;100.00;101804.84;5008893;28;20096;-59
2023/07/10 01:25:37;;;;;;;20.35;12.55;;;;;;;19.59;100.00;101803.03;5009305;28;20042;-59
2023/07/10 01:28:09;;;;;;;23.10;13.32;;;;;;;19.50;100.00;101801.19;5008440;28;20058;-59
2023/07/10 01:30:43;;;;;;;20.45;12.70;;;;;;;19.50;100.00;101806.53;5009333;28;20393;-59
2023/07/10 01:33:16;;;;;;;18.48;11.93;;;;;;;19.51;100.00;101813.53;5008494;28;20531;-59
2023/07/10 01:35:45;;;;;;;;;;;;;;;19.51;100.00;101813.53;5009436;28;20433;-59
2023/07/10 01:38:16;;;;;;;17.88;12.25;;;;;;;19.36;100.00;101813.91;5008380;28;19921;-59
2023/07/10 01:40:50;;;;;;;17.42;12.63;;;;;;;19.38;100.00;101814.63;5009241;28;20050;-59
2023/07/10 01:43:18;;;;;;;17.17;11.90;;;;;;;19.38;100.00;101819.94;5008974;28;20068;-58
2023/07/10 01:45:49;;;;;;;17.58;11.27;;;;;;;19.32;100.00;101823.16;5008888;28;20053;-58
2023/07/10 01:48:19;;;;;;;17.25;12.45;;;;;;;19.31;100.00;101815.31;5007995;28;20071;-58
2023/07/10 01:50:47;;;;;;;15.82;11.38;;;;;;;19.28;100.00;101820.88;5009097;28;20142;-59
2023/07/10 01:53:16;;;;;;;18.33;11.35;;;;;;;19.36;100.00;101824.59;5008423;28;20046;-59
2023/07/10 01:55:47;;;;;;;22.90;11.27;;;;;;;19.32;100.00;101825.84;5008875;28;20132;-63
2023/07/10 01:58:15;;;;;;;16.85;10.18;;;;;;;19.40;100.00;101815.34;5008485;28;20046;-59
2023/07/10 02:00:43;;;;;;;13.25;10.27;;;;;;;19.30;100.00;101827.78;5008438;28;20383;-59
2023/07/10 02:03:11;;;;;;;14.45;9.35;;;;;;;19.28;100.00;101827.09;5007866;28;20129;-58
2023/07/10 02:05:39;;;;;;;15.05;9.18;;;;;;;19.27;100.00;101827.22;5009365;28;20127;-58
2023/07/10 02:08:08;;;;;;;14.73;7.95;;;;;;;19.23;100.00;101830.13;5008774;28;20042;-58
2023/07/10 02:10:37;;;;;;;13.18;7.38;;;;;;;19.28;100.00;101835.09;5008820;28;20046;-58
2023/07/10 02:13:12;;;;;;;11.98;7.15;;;;;;;19.28;100.00;101823.56;5008564;28;20092;-58
2023/07/10 02:15:41;;;;;;;15.93;8.05;;;;;;;19.29;100.00;101820.75;5008728;28;20050;-58
2023/07/10 02:18:10;;;;;;;13.57;8.02;;;;;;;19.33;100.00;101814.16;5007873;28;20038;-57
2023/07/10 02:20:39;;;;;;;12.07;7.65;;;;;;;19.36;100.00;101816.59;5007994;28;20042;-58
2023/07/10 02:23:07;;;;;;;13.50;7.65;;;;;;;19.35;100.00;101814.91;5010572;28;20517;-57
2023/07/10 02:25:37;;;;;;;13.32;7.15;;;;;;;19.31;100.00;101816.13;5021900;28;20096;-59
2023/07/10 02:28:07;;;;;;;13.98;7.20;;;;;;;19.32;100.00;101820.50;5026402;28;20067;-58
2023/07/10 02:30:38;;;;;;;14.65;6.72;;;;;;;19.21;100.00;101825.91;5012836;28;20412;-58
2023/07/10 02:33:06;;;;;;;12.70;6.35;;;;;;;19.21;100.00;101825.91;5007742;28;20046;-58
2023/07/10 02:35:34;;;;;;;10.07;6.18;;;;;;;19.32;100.00;101814.31;5010294;28;20034;-58
2023/07/10 02:38:03;;;;;;;11.38;6.43;;;;;;;19.28;100.00;101827.09;5010363;28;20484;-57
2023/07/10 02:40:31;;;;;;;11.20;6.30;;;;;;;19.17;100.00;101825.34;5012603;28;20125;-58
2023/07/10 02:43:03;;;;;;;11.75;5.82;;;;;;;19.21;100.00;101828.56;5026373;28;20052;-58
2023/07/10 02:45:31;;;;;;;10.63;5.07;;;;;;;19.22;100.00;101820.47;5020022;28;20111;-58
2023/07/10 02:47:59;;;;;;;14.02;6.25;;;;;;;19.25;100.00;101827.31;5024662;28;20041;-58
2023/07/10 02:50:27;;;;;;;10.52;5.32;;;;;;;19.29;100.00;101835.91;5030326;28;20096;-57
2023/07/10 02:52:55;;;;;;;11.90;5.10;;;;;;;19.30;100.00;101840.28;5024205;28;20041;-58
2023/07/10 02:55:23;;;;;;;10.30;5.38;;;;;;;19.30;100.00;101843.78;5026332;28;20117;-58
2023/07/10 02:57:52;;;;;;;13.25;5.72;;;;;;;19.33;100.00;101840.84;5020168;28;20046;-57
2023/07/10 03:00:22;;;;;;;11.95;5.63;;;;;;;19.35;100.00;101838.06;5024921;28;20054;-58
2023/07/10 03:02:54;;;;;;;10.07;5.68;;;;;;;19.32;100.00;101849.84;5011136;28;20045;-58
2023/07/10 03:05:22;;;;;;;12.55;6.43;;;;;;;19.32;100.00;101847.16;5010734;28;20137;-58
2023/07/10 03:07:51;;;;;;;15.70;8.45;;;;;;;19.30;100.00;101859.78;5013381;28;20045;-58
2023/07/10 03:10:20;;;;;;;14.27;10.10;;;;;;;19.29;100.00;101851.91;5019233;28;20141;-58
2023/07/10 03:12:48;;;;;;;17.05;11.45;;;;;;;19.31;100.00;101858.81;5020092;28;20408;-58
2023/07/10 03:15:17;;;;;;;17.15;11.18;;;;;;;19.29;100.00;101846.59;5028967;28;20051;-58
2023/07/10 03:17:49;;;;;;;18.13;11.13;;;;;;;19.28;100.00;101851.09;5018827;28;20045;-57
2023/07/10 03:20:17;;;;;;;15.50;9.88;;;;;;;19.29;100.00;101851.91;5008754;28;20080;-58
2023/07/10 03:22:45;;;;;;;17.42;10.45;;;;;;;19.17;100.00;101853.81;5019721;28;20041;-58
2023/07/10 03:25:13;;;;;;;14.05;9.18;;;;;;;19.18;100.00;101860.84;5022458;28;20709;-57
2023/07/10 03:27:41;;;;;;;12.73;8.00;;;;;;;19.16;100.00;101868.97;5014895;28;20058;-62
2023/07/10 03:30:10;;;;;;;12.52;6.85;;;;;;;19.11;100.00;101859.69;5011669;28;20072;-62
2023/07/10 03:32:38;;;;;;;10.60;6.03;;;;;;;19.17;100.00;101864.47;5011010;28;20042;-63
2023/07/10 03:35:08;;;;;;;11.20;5.28;;;;;;;19.13;100.00;101866.56;5026693;28;20053;-63
2023/07/10 03:37:36;;;;;;;11.63;5.07;;;;;;;19.09;100.00;101868.66;5010963;28;20050;-63
2023/07/10 03:40:08;;;;;;;12.52;4.47;;;;;;;19.05;100.00;101871.72;5011302;28;20053;-63
2023/07/10 03:42:36;;;;;;;9.32;4.28;;;;;;;19.03;100.00;101874.53;5011541;28;20111;-62
2023/07/10 03:45:07;;;;;;;7.82;4.13;;;;;;;19.06;100.00;101873.38;5010979;28;20042;-62
2023/07/10 03:47:35;;;;;;;9.32;3.67;;;;;;;19.10;100.00;101872.16;5010774;28;20045;-62
2023/07/10 03:50:03;;;;;;;10.82;4.00;;;;;;;19.04;100.00;101886.00;5010752;28;20064;-63
2023/07/10 03:52:33;;;;;;;12.63;3.58;;;;;;;18.99;100.00;101883.75;5010987;28;20077;-63
2023/07/10 03:55:01;;;;;;;11.38;4.10;;;;;;;18.97;100.00;101890.19;5010469;28;20052;-63
2023/07/10 03:57:32;;;;;;;10.73;4.20;;;;;;;19.02;100.00;101886.16;5010943;28;20044;-62
2023/07/10 04:00:05;;;;;;;12.38;5.25;;;;;;;18.99;100.00;101886.41;5010457;28;20061;-63
2023/07/10 04:02:33;;;;;;;11.82;5.40;;;;;;;18.96;100.00;101893.81;5009815;28;20053;-63
2023/07/10 04:05:01;;;;;;;10.43;5.35;;;;;;;18.97;100.00;101887.53;5010464;28;20081;-63
2023/07/10 04:07:34;;;;;;;11.45;5.38;;;;;;;18.92;100.00;101891.41;5011073;28;20072;-63
2023/07/10 04:10:02;;;;;;;10.85;5.65;;;;;;;18.94;100.00;101895.75;5010351;28;20501;-63
2023/07/10 04:12:30;;;;;;;10.07;5.15;;;;;;;18.89;100.00;101899.66;5010963;28;20139;-63
2023/07/10 04:14:59;;;;;;;10.50;4.60;;;;;;;18.93;100.00;101900.25;5010226;28;20049;-64
2023/07/10 04:17:27;;;;;;;14.88;6.03;;;;;;;18.90;100.00;101893.34;5009685;28;20093;-63
2023/07/10 04:19:55;;;;;;;8.95;5.25;;;;;;;18.85;100.00;101892.03;5008505;28;20088;-63
2023/07/10 04:22:23;;;;;;;11.40;5.47;;;;;;;18.90;100.00;101897.84;5010357;28;20046;-58
2023/07/10 04:24:52;;;;;;;10.80;5.97;;;;;;;18.79;100.00;101896.06;5008493;28;20412;-63
2023/07/10 04:27:21;;;;;;;11.68;6.45;;;;;;;18.83;100.00;101902.81;5010486;28;20054;-57
2023/07/10 04:29:49;;;;;;;12.23;6.07;;;;;;;18.79;100.00;101904.03;5010195;28;20141;-59
2023/07/10 04:32:17;;;;;;;11.13;6.65;;;;;;;18.82;100.00;101905.63;5009320;28;20424;-57
2023/07/10 04:34:45;;;;;;;10.93;6.15;;;;;;;18.83;100.00;101907.28;5009626;28;20050;-57
2023/07/10 04:37:13;;;;;;;11.80;6.55;;;;;;;18.91;100.00;101916.38;5012708;28;20046;-58
2023/07/10 04:39:44;;;;;;;14.90;5.88;;;;;;;18.85;100.00;101916.00;5012829;28;20550;-58
2023/07/10 04:42:14;;;;;;;8.95;5.85;;;;;;;18.79;100.00;101920.03;5010568;28;20064;-58
2023/07/10 04:44:45;;;;;;;13.00;6.55;;;;;;;18.72;100.00;101919.69;5010530;28;20052;-58
2023/07/10 04:47:13;;;;;;;10.25;6.18;;;;;;;18.65;100.00;101918.53;5009720;28;20042;-57
2023/07/10 04:49:44;;;;;;;9.20;5.15;;;;;;;18.67;100.00;101916.56;5009195;28;20105;-57
2023/07/10 04:52:12;;;;;;;11.90;5.53;;;;;;;18.67;100.00;101929.88;5012497;28;20045;-57
2023/07/10 04:54:40;;;;;;;8.38;4.60;;;;;;;18.69;100.00;101924.41;5012786;28;20045;-57
2023/07/10 04:57:08;;;;;;;11.32;5.15;;;;;;;18.65;100.00;101915.84;5012607;28;20137;-57
2023/07/10 04:59:38;;;;;;;13.80;4.95;;;;;;;18.61;100.00;101916.22;5012743;28;20049;-57
2023/07/10 05:02:06;;;;;;;11.88;5.55;;;;;;;18.65;100.00;101912.31;5010694;28;20092;-57
2023/07/10 05:04:34;;;;;;;9.80;5.90;;;;;;;18.66;100.00;101922.03;5009769;28;20516;-57
2023/07/10 05:07:03;;;;;;;11.02;5.03;;;;;;;18.64;100.00;101919.50;5009904;28;20971;-57
2023/07/10 05:09:31;;;;;;;10.68;5.43;;;;;;;18.70;100.00;101915.47;5008506;28;20049;-58
2023/07/10 05:11:59;;;;;;;11.55;4.65;;;;;;;18.70;100.00;101910.97;5010526;28;20489;-58
2023/07/10 05:14:27;;;;;;;10.38;5.10;;;;;;;18.69;100.00;101911.97;5008299;28;20136;-57
2023/07/10 05:16:59;;;;;;;9.52;4.45;;;;;;;18.78;100.00;101926.31;5009092;28;20492;-57
2023/07/10 05:19:32;;;;;;;8.73;4.35;;;;;;;18.81;100.00;101925.22;5012132;28;20053;-58
2023/07/10 05:22:01;;;;;;;8.88;4.40;;;;;;;18.80;100.00;101932.41;5011524;28;20127;-58
2023/07/10 05:24:29;;;;;;;10.02;3.95;;;;;;;18.82;100.00;101925.09;5009260;28;20405;-57
2023/07/10 05:26:57;;;;;;;9.35;4.03;;;;;;;18.84;100.00;101932.97;5011079;28;20054;-57
2023/07/10 05:29:25;;;;;;;7.57;3.50;;;;;;;18.79;100.00;101929.81;5009571;28;20044;-58
2023/07/10 05:31:53;;;;;;;8.68;3.88;;;;;;;18.85;100.00;101930.16;5008610;28;20498;-58
2023/07/10 05:34:23;;;;;;;8.13;3.45;;;;;;;18.85;100.00;101927.50;5008829;28;20092;-58
2023/07/10 05:36:52;;;;;;;6.75;3.40;;;;;;;18.89;100.00;101930.78;5009146;28;20420;-57
2023/07/10 05:39:20;;;;;;;8.57;3.92;;;;;;;18.90;100.00;101937.81;5008477;28;20524;-58
2023/07/10 05:41:48;;;;;;;7.75;3.33;;;;;;;18.94;100.00;101938.41;5011954;28;20389;-58
2023/07/10 05:44:16;;;;;;;8.43;3.40;;;;;;;19.02;100.00;101941.25;5013891;28;20038;-58
2023/07/10 05:46:44;;;;;;;9.50;3.42;;;;;;;18.99;100.00;101945.06;5025967;28;20061;-58
2023/07/10 05:49:12;;;;;;;8.52;3.28;;;;;;;18.99;100.00;101938.88;5023028;28;20049;-58
2023/07/10 05:51:42;;;;;;;10.73;3.50;;;;;;;18.92;100.00;101939.41;5016366;28;20136;-57
2023/07/10 05:54:11;;;;;;;8.80;3.70;;;;;;;18.94;100.00;101941.06;5019714;28;20073;-58
2023/07/10 05:56:40;;;;;;;7.93;3.75;;;;;;;18.94;100.00;101943.72;5001340;28;20038;-58
2023/07/10 05:59:11;;;;;;;9.63;3.70;;;;;;;18.94;100.00;101944.59;5011967;28;20053;-58
2023/07/10 06:01:43;;;;;;;10.10;3.38;;;;;;;18.99;100.00;101942.41;5020814;28;20555;-58
2023/07/10 06:04:11;;;;;;;8.65;3.30;;;;;;;19.04;100.00;101945.50;5014094;28;20050;-58
2023/07/10 06:06:41;;;;;;;9.30;3.13;;;;;;;19.02;100.00;101951.94;5006939;28;20045;-58
2023/07/10 06:09:10;;;;;;;11.43;3.80;;;;;;;19.08;100.00;101948.75;5027568;28;20041;-57
2023/07/10 06:11:38;;;;;;;8.57;3.97;;;;;;;19.18;100.00;101955.03;5022787;28;20619;-58
2023/07/10 06:14:06;;;;;;;11.02;4.00;;;;;;;19.23;100.00;101954.63;5012578;28;20513;-58
2023/07/10 06:16:34;;;;;;;10.23;4.22;;;;;;;19.34;100.00;101951.88;5015893;28;20096;-57
2023/07/10 06:19:03;;;;;;;9.02;3.75;;;;;;;19.35;100.00;101948.25;5032478;28;20049;-58
2023/07/10 06:21:31;;;;;;;8.85;4.30;;;;;;;19.41;100.00;101952.19;5017688;28;20041;-59
2023/07/10 06:24:00;;;;;;;9.02;3.95;;;;;;;19.47;100.00;101950.81;5025454;28;20042;-58
2023/07/10 06:26:28;;;;;;;9.50;3.65;;;;;;;19.57;100.00;101952.56;5017774;28;20141;-58
2023/07/10 06:28:57;;;;;;;8.98;3.70;;;;;;;19.68;100.00;101950.81;5011572;28;20048;-58
2023/07/10 06:31:25;;;;;;;6.82;3.28;;;;;;;19.77;100.00;101956.19;5015453;28;20045;-60
2023/07/10 06:33:53;;;;;;;10.00;3.65;;;;;;;19.89;100.00;101958.78;5011346;28;20072;-62
2023/07/10 06:36:21;;;;;;;7.88;3.50;;;;;;;20.00;100.00;101956.03;5016507;28;20762;-61
2023/07/10 06:38:51;;;;;;;9.90;3.15;;;;;;;20.06;100.00;101952.81;5030211;28;20128;-61
2023/07/10 06:41:27;;;;;;;8.43;2.90;;;;;;;20.13;100.00;101957.63;5023754;28;20783;-61
2023/07/10 06:43:55;;;;;;;6.50;2.72;;;;;;;20.25;100.00;101956.53;5011334;28;20050;-58
2023/07/10 06:46:25;;;;;;;8.80;2.58;;;;;;;20.37;100.00;101954.56;5014221;28;20104;-58
2023/07/10 06:48:56;;;;;;;;;;;;;;;20.52;100.00;101958.56;5011305;28;20053;-58
2023/07/10 06:51:27;;;;;;;7.82;2.67;;;;;;;20.55;100.00;101968.97;5017168;28;19929;-59
2023/07/10 06:53:55;;;;;;;9.38;2.20;;;;;;;20.67;100.00;101963.47;5019553;28;20076;-59
2023/07/10 06:56:25;;;;;;;8.23;2.13;;;;;;;20.78;100.00;101971.41;5013634;28;20050;-58
2023/07/10 06:58:53;;;;;;;7.50;2.10;;;;;;;20.89;100.00;101981.13;5021588;28;20088;-58
2023/07/10 07:01:21;;;;;;;8.23;2.13;;;;;;;21.05;100.00;101975.19;5024633;28;20041;-58
2023/07/10 07:03:49;;;;;;;7.88;2.05;;;;;;;21.14;100.00;101974.34;5028383;28;20048;-58
2023/07/10 07:06:18;;;;;;;7.97;1.85;;;;;;;21.25;100.00;101974.19;5031112;28;20051;-58
2023/07/10 07:08:48;;;;;;;8.52;1.77;;;;;;;21.45;100.00;101980.34;5021622;28;20045;-58
2023/07/10 07:11:17;;;;;;;7.90;2.20;;;;;;;21.37;100.00;101977.56;5025053;28;20492;-58
2023/07/10 07:13:46;;;;;;;8.52;2.30;;;;;;;21.57;100.00;101972.22;5010899;28;20050;-58
2023/07/10 07:16:14;;;;;;;7.38;2.13;;;;;;;21.69;100.00;101973.72;5011486;28;20057;-58
2023/07/10 07:18:43;;;;;;;6.88;1.90;;;;;;;21.87;100.00;101979.16;5024394;28;20135;-58
2023/07/10 07:21:14;;;;;;;6.90;2.10;;;;;;;22.00;100.00;101977.97;5016677;28;20057;-58
2023/07/10 07:23:43;;;;;;;7.63;1.75;;;;;;;22.15;100.00;101981.84;5013649;28;20040;-57
2023/07/10 07:26:13;;;;;;;9.15;2.05;;;;;;;22.38;100.00;101978.78;5021172;28;20945;-58
2023/07/10 07:28:41;;;;;;;8.20;1.67;;;;;;;22.56;100.00;101989.53;5011793;28;20038;-58
2023/07/10 07:31:11;;;;;;;7.88;2.00;;;;;;;22.72;100.00;101984.31;5016995;28;20049;-58
2023/07/10 07:33:39;;;;;;;7.38;1.90;;;;;;;22.88;100.00;101988.19;5009866;28;20077;-58
2023/07/10 07:36:07;;;;;;;7.75;1.25;;;;;;;23.02;100.00;101989.47;5021172;28;20042;-57
2023/07/10 07:38:36;;;;;;;8.90;1.77;;;;;;;23.15;100.00;101997.13;5019194;28;20041;-58
2023/07/10 07:41:05;;;;;;;7.97;2.15;;;;;;;23.15;100.00;101999.81;5020059;28;20229;-58
2023/07/10 07:43:33;;;;;;;7.93;1.58;;;;;;;23.37;100.00;101993.09;5013907;28;20050;-57
2023/07/10 07:46:02;;;;;;;6.65;1.52;;;;;;;23.58;100.00;101982.03;5024901;28;20548;-56
2023/07/10 07:48:32;;;;;;;6.57;1.40;;;;;;;23.63;100.00;101982.41;5014053;28;20073;-57
2023/07/10 07:51:02;;;;;;;8.57;2.10;;;;;;;23.79;100.00;101990.53;5013938;28;20692;-57
2023/07/10 07:53:33;;;;;;;10.45;1.90;;;;;;;23.92;100.00;101983.91;5013807;28;20050;-57
2023/07/10 07:56:02;;;;;;;7.68;2.13;;;;;;;23.95;100.00;101979.03;5021199;28;20056;-58
2023/07/10 07:58:31;;;;;;;8.10;1.80;;;;;;;23.80;100.00;101991.38;5029360;28;20041;-58
2023/07/10 08:00:59;;;;;;;8.25;2.10;;;;;;;23.82;100.00;101989.38;5019985;28;20509;-58
2023/07/10 08:03:28;;;;;;;4.90;1.42;;;;;;;23.90;100.00;101983.22;5018568;28;20458;-58
2023/07/10 08:05:58;;;;;;;6.57;1.70;;;;;;;24.03;100.00;101983.63;5018518;28;20041;-58
2023/07/10 08:08:26;;;;;;;9.32;1.75;;;;;;;24.24;100.00;101991.28;5029624;28;20072;-58
2023/07/10 08:10:54;;;;;;;6.90;1.67;;;;;;;24.47;100.00;101985.28;5026541;28;20124;-58
2023/07/10 08:13:22;;;;;;;9.25;2.13;;;;;;;24.60;100.00;101976.75;5023049;28;20556;-58
2023/07/10 08:15:54;;;;;;;8.27;1.90;;;;;;;24.62;100.00;101980.13;5020809;28;20041;-58
2023/07/10 08:18:22;;;;;;;9.70;1.55;;;;;;;24.77;100.00;101978.47;5028905;28;20553;-58
2023/07/10 08:20:50;;;;;;;9.07;1.95;;;;;;;25.08;100.00;101971.59;5021785;28;20101;-57
2023/07/10 08:23:20;;;;;;;7.82;1.73;;;;;;;24.98;100.00;101969.06;5010633;28;20046;-57
2023/07/10 08:25:48;;;;;;;7.30;1.60;;;;;;;25.16;100.00;101970.75;5010303;28;20049;-57
2023/07/10 08:28:16;;;;;;;10.52;1.83;;;;;;;25.23;100.00;101971.75;5019989;28;20048;-58
2023/07/10 08:30:44;;;;;;;6.78;1.70;;;;;;;25.24;100.00;101973.44;5009360;28;20056;-59
2023/07/10 08:33:13;;;;;;;7.40;1.58;;;;;;;25.35;100.00;101973.09;5009831;28;20050;-57
2023/07/10 08:35:41;;;;;;;8.05;1.75;;;;;;;25.62;100.00;101974.56;5007243;28;20452;-57
2023/07/10 08:38:09;;;;;;;7.95;1.75;;;;;;;25.76;100.00;101977.56;5025404;28;20125;-57
2023/07/10 08:40:43;;;;;;;7.53;1.60;;;;;;;25.70;100.00;101975.53;5029535;28;20128;-57
2023/07/10 08:43:25;;;;;;;10.90;2.03;;;;;;;25.97;100.00;101971.56;5009599;28;20693;-57
2023/07/10 08:46:01;;;;;;;7.40;1.93;;;;;;;25.90;100.00;101976.81;5014344;28;20144;-57
2023/07/10 08:48:34;;;;;;;9.32;2.10;;;;;;;26.04;100.00;101979.84;5010524;28;20038;-58
2023/07/10 08:51:14;;;;;;;7.53;1.95;;;;;;;26.09;100.00;101977.47;5015790;28;20103;-57
2023/07/10 08:53:47;;;;;;;8.88;1.75;;;;;;;26.13;100.00;101979.59;5026526;28;20068;-58
2023/07/10 08:56:24;;;;;;;7.35;1.83;;;;;;;26.12;100.00;101985.19;5032366;28;20424;-57
2023/07/10 08:58:55;;;;;;;5.75;1.83;;;;;;;26.39;100.00;101983.03;5012401;28;20104;-58
2023/07/10 09:01:31;;;;;;;6.07;1.60;;;;;;;26.62;100.00;101985.75;5012881;28;20045;-57
2023/07/10 09:04:01;;;;;;;10.30;1.77;;;;;;;26.81;100.00;101979.91;5025563;28;20073;-57
2023/07/10 09:06:37;;;;;;;9.55;2.30;;;;;;;26.98;100.00;101979.75;5009434;28;20513;-57
2023/07/10 09:09:17;;;;;;;10.30;1.85;;;;;;;27.22;100.00;101977.88;5009832;28;20151;-57
2023/07/10 09:11:47;;;;;;;8.25;2.13;;;;;;;27.24;100.00;101981.22;5024388;28;20033;-56
2023/07/10 09:14:25;;;;;;;9.45;1.88;;;;;;;27.10;100.00;101978.31;4993479;28;20142;-60
2023/07/10 09:16:56;;;;;;;8.73;1.95;;;;;;;27.29;100.00;101985.03;4995813;28;20056;-62
2023/07/10 09:19:25;;;;;;;10.80;2.13;;;;;;;27.39;100.00;101981.28;5000552;28;21584;-64
2023/07/10 09:21:53;;;;;;;8.02;1.88;;;;;;;27.43;100.00;101971.78;5001253;28;20049;-63
2023/07/10 09:24:23;;;;;;;8.73;2.13;;;;;;;27.56;97.81;101974.69;4996028;28;20160;-63
2023/07/10 09:26:52;;;;;;;6.53;1.80;;;;;;;27.68;98.46;101975.06;4992736;28;20509;-64
2023/07/10 09:29:28;;;;;;;8.50;1.90;;;;;;;27.78;97.88;101989.13;5007123;28;20073;-63
2023/07/10 09:32:05;;;;;;;8.23;1.90;;;;;;;27.77;100.00;101986.59;5017787;28;20639;-71
2023/07/10 09:34:35;;;;;;;5.55;1.60;;;;;;;27.89;95.51;101992.38;5003991;28;20038;-70
2023/07/10 09:37:10;;;;;;;8.80;1.98;;;;;;;27.88;95.96;101988.81;5001818;28;20493;-63
2023/07/10 09:39:39;;;;;;;8.13;1.75;;;;;;;28.23;94.22;101980.16;5000806;28;20042;-72
2023/07/10 09:42:14;;;;;;;7.60;1.90;;;;;;;27.96;90.25;101985.19;5018317;28;20531;-73
2023/07/10 09:44:50;;;;;;;8.77;1.80;;;;;;;27.77;92.20;101976.66;5006392;28;20052;-68
2023/07/10 09:47:22;;;;;;;8.15;1.77;;;;;;;27.86;83.15;101979.25;5003395;28;20446;-69
2023/07/10 09:49:54;;;;;;;6.18;1.70;;;;;;;27.99;89.18;101968.59;5009433;28;20076;-72
2023/07/10 09:52:26;;;;;;;8.00;2.03;;;;;;;28.27;91.93;101976.03;5007407;28;20041;-71
2023/07/10 09:55:02;;;;;;;6.30;1.90;;;;;;;27.72;84.37;101979.06;4996365;28;20050;-73
2023/07/10 09:57:31;;;;;;;7.05;2.00;;;;;;;28.10;84.48;101981.66;4991950;28;20471;-70
2023/07/10 10:00:03;;;;;;;6.22;1.80;;;;;;;27.87;84.35;101983.63;4991100;28;20076;-75
2023/07/10 10:02:46;;;;;;;7.90;1.95;;;;;;;27.91;83.97;101971.41;4998584;28;20041;-70
2023/07/10 10:05:42;;;;;;;9.77;1.90;;;;;;;27.63;80.67;101977.47;5009758;28;20050;-68
2023/07/10 10:08:34;;;;;;;7.80;1.70;;;;;;;27.88;80.55;101960.97;4993247;28;20038;-69
2023/07/10 10:11:05;;;;;;;6.82;1.75;;;;;;;28.05;76.76;101967.88;5000041;28;20065;-71
2023/07/10 10:13:41;;;;;;;6.22;1.48;;;;;;;28.04;74.13;101977.00;5011699;28;20048;-71
2023/07/10 10:16:19;;;;;;;7.32;1.55;;;;;;;28.35;75.45;101973.22;5010622;28;20054;-67
2023/07/10 10:18:55;;;;;;;5.32;1.75;;;;;;;28.55;75.65;101964.47;5008385;28;20054;-67
2023/07/10 10:21:25;;;;;;;6.03;1.60;;;;;;;28.74;75.29;101966.56;5011406;28;20527;-68
2023/07/10 10:23:58;;;;;;;6.82;1.50;;;;;;;29.07;75.24;101966.00;5007985;28;20043;-68
2023/07/10 10:26:33;;;;;;;10.32;1.75;;;;;;;29.10;70.64;101965.63;5016806;28;20077;-68
2023/07/10 10:29:16;;;;;;;4.68;1.48;;;;;;;29.40;70.73;101970.03;5007759;28;20053;-70
2023/07/10 10:31:53;;;;;;;8.43;1.60;;;;;;;29.41;67.36;101966.25;5003042;28;20034;-69
2023/07/10 10:34:31;;;;;;;7.88;1.67;;;;;;;29.41;68.80;101974.41;5008922;28;20096;-71
2023/07/10 10:37:15;;;;;;;9.40;1.92;;;;;;;29.82;68.60;101968.19;5009214;28;20493;-68
2023/07/10 10:39:49;;;;;;;7.65;1.80;;;;;;;29.82;65.55;101979.03;5015243;28;20042;-71
2023/07/10 10:42:26;;;;;;;8.30;1.75;;;;;;;29.47;67.88;101982.56;4995137;28;20505;-71
2023/07/10 10:45:09;;;;;;;9.10;1.95;;;;;;;29.31;68.39;101974.75;5016446;28;20037;-70
2023/07/10 10:47:47;;;;;;;7.18;1.67;;;;;;;29.14;65.94;101976.91;5015554;28;20049;-68
2023/07/10 10:50:29;;;;;;;5.93;1.85;;;;;;;29.02;66.03;101987.41;5016846;28;20401;-70
2023/07/10 10:53:12;;;;;;;5.68;1.50;;;;;;;29.49;67.56;101983.22;5020588;28;20137;-76
2023/07/10 10:55:53;;;;;;;7.97;1.55;;;;;;;29.63;68.97;101980.59;5019759;28;20467;-69
2023/07/10 10:58:34;;;;;;;8.35;1.75;;;;;;;29.20;68.95;101973.38;5025322;28;20045;-70
2023/07/10 11:01:21;;;;;;;9.55;1.75;;;;;;;29.65;66.56;101963.06;5025086;28;20038;-73
2023/07/10 11:03:54;;;;;;;7.40;1.70;;;;;;;29.69;65.77;101968.94;5026797;28;20053;-70
2023/07/10 11:06:45;;;;;;;7.55;1.80;;;;;;;29.66;64.46;101967.47;5021398;28;20139;-66
2023/07/10 11:09:18;;;;;;;8.15;1.88;;;;;;;30.13;64.32;101970.41;5016510;28;20054;-70
2023/07/10 11:11:47;;;;;;;8.52;1.80;;;;;;;29.70;65.89;101969.78;5027490;28;20492;-68
2023/07/10 11:14:16;;;;;;;8.05;2.03;;;;;;;29.55;66.49;101967.22;5015851;28;20050;-69
2023/07/10 11:16:53;;;;;;;7.65;1.80;;;;;;;29.56;64.14;101969.72;5022532;28;20481;-69
2023/07/10 11:19:25;;;;;;;6.85;1.70;;;;;;;29.98;68.77;101972.44;5024266;28;20042;-68
2023/07/10 11:21:54;;;;;;;5.95;1.60;;;;;;;30.33;66.68;101980.47;5024283;28;20489;-69
2023/07/10 11:24:31;;;;;;;11.63;1.80;;;;;;;29.91;64.51;101975.09;5021840;28;20385;-70
2023/07/10 11:27:13;;;;;;;8.18;1.85;;;;;;;29.87;64.36;101976.56;5018699;28;20544;-74
2023/07/10 11:29:45;;;;;;;8.82;2.00;;;;;;;29.31;63.72;101972.03;5014257;28;20447;-70
2023/07/10 11:32:18;;;;;;;7.05;1.63;;;;;;;29.16;62.72;101975.69;5011347;28;20517;-71